To NAV CANADA Home Page Login to a new session Search on AWWS site Feedback and Comments Disclaimer Vers la page française équivalente Tips FAQ What's new on the site To the Forecasts and Observations / NOTAM section To "File a Flight Plan" website Publications and other links Update of the User's profile FIC Telephone Numbers My Weather Data Folder Route Weather Data Regional Weather Data Local Weather Data To the Forecasts and Observations / NOTAM section
Request Generated 02/23/2017 at 20:47:03 UTC . Weather information available at that time is displayed.


Go to a specific product

Save this request

NOTAM

NOTAM


SIGMET
To the Product Selector

SIGMETS GFACN32

GFACN32 - No SIGMET bulletins in effect



AIRMET
To the Product Selector

AIRMETS GFACN32

GFACN32 - No AIRMET bulletins in effect



PIREP
To the Product Selector

FIR_WINNIPEG (WG)

WG - PIREP not available



METAR/TAF
To the Product Selector

REGINA/REGINA INTL/SK    

METAR CYQR 232000Z 31012G18KT 15SM -SN SCT024 BKN033 M02/M08 A3007
RMK CU4SC3 SLP220=
METAR CYQR 231900Z 30013KT 15SM -SN BKN038 M02/M08 A3008 RMK SC7
SLP222=
METAR CYQR 231800Z 30011KT 15SM FEW030 BKN040 BKN080 M02/M09 A3009
RMK CU1SC7AC1 CU TR AC TR SLP223=

TAF AMD CYQR 232006Z 2320/2418 31012KT P6SM SCT020 BKN030 TEMPO
2320/2401 4SM -SN BKN020
FM240100 32008KT P6SM BKN030
BECMG 2402/2404 05006KT
RMK NXT FCST BY 240000Z=

MOOSE JAW/AIR VICE MARSHAL C.M. MCEWEN/SK    

METAR CYMJ 232000Z 32014KT 15SM BKN032 M01/M08 A3010 RMK SC6 SLP224=
METAR CYMJ 231900Z 31014KT 15SM BKN030 M02/M09 A3010 RMK SC7 SLP226=
METAR CYMJ 231800Z 32009KT 15SM -SN BKN036 M02/M08 A3012 RMK SC7 SLP230=

TAF CYMJ 231730Z 2318/2406 29008KT P6SM FEW025 BKN040 TEMPO 2318/2403
5SM -SHSN BKN020 OVC040
BECMG 2401/2403 VRB03KT
RMK NXT FCST BY 240000Z=


RADAR PCPN RATE
To the Product Selector
Pacific Canada      Western Canada     

SATELLITE VISIBLE
To the Product Selector
West Canada      

SATELLITE INFRARED
To the Product Selector
West Canada     

GRAPHICAL FA CLOUDS & WEATHER FORECASTS
To the Product Selector
Graphical FA gfacn32      

GRAPHICAL FA ICING, TURBULENCE & FREEZING LEVEL FORECASTS
To the Product Selector
Graphical FA gfacn32      

FDTEXT Low Level FD. Temperatures are not forecast for the 3,000-foot level.
To the Product Selector
STN YQR - REGINA. SASK for use 3000 6000 9000 12000 18000
FDCN01 CWAO FCST BASED ON 231200 DATA VALID 231800 17-21 3017-13 2923-17 3031-23 2830-36
FDCN02 CWAO FCST BASED ON 231200 DATA VALID 240000 21-06 3218-13 3127-18 2933-24 2842-37
FDCN03 CWAO FCST BASED ON 231200 DATA VALID 241200 06-17 3115-13 2821-18 2835-25 2842-36



Your time UTC time
Weather data provided by Environment Canada and NAV CANADA